Time;durP1;ratioP1;P1;durP2;ratioP2;P2;SDS_P1;SDS_P2;PMS_P1;PMS_P2;Temp;Humidity;BMP_temperature;BMP_pressure;BME280_temperature;BME280_humidity;BME280_pressure;Samples;Min_cycle;Max_cycle;Signal;HPM_P1;HPM_P2
2021/09/20 00:01:35;;;;;;;7.60;4.67;;;14.90;99.90;;;;;;5011387;28;20724;-50
2021/09/20 00:04:03;;;;;;;6.80;4.17;;;14.90;1.00;;;;;;5008640;28;20686;-50
2021/09/20 00:06:30;;;;;;;5.90;4.50;;;14.90;1.00;;;;;;5005267;28;20244;-50
2021/09/20 00:08:56;;;;;;;6.40;4.37;;;14.90;1.00;;;;;;5007658;28;20330;-50
2021/09/20 00:11:23;;;;;;;6.27;4.30;;;14.90;1.00;;;;;;5009764;28;20612;-50
2021/09/20 00:13:50;;;;;;;5.83;4.80;;;14.80;1.00;;;;;;5010038;28;20535;-50
2021/09/20 00:16:18;;;;;;;5.77;4.87;;;14.90;1.00;;;;;;5009287;28;20221;-50
2021/09/20 00:18:44;;;;;;;6.53;4.53;;;14.90;1.00;;;;;;5008734;28;20313;-50
2021/09/20 00:21:12;;;;;;;6.23;4.63;;;14.80;1.00;;;;;;5009066;28;20243;-51
2021/09/20 00:23:39;;;;;;;5.70;4.63;;;14.80;1.00;;;;;;5012367;28;20237;-50
2021/09/20 00:26:06;;;;;;;6.23;5.03;;;14.80;1.00;;;;;;5004208;28;20198;-50
2021/09/20 00:28:32;;;;;;;4.97;4.13;;;14.70;1.00;;;;;;5013437;28;20231;-51
2021/09/20 00:30:59;;;;;;;5.73;4.40;;;14.70;1.00;;;;;;5002624;28;20205;-51
2021/09/20 00:33:26;;;;;;;5.87;5.10;;;14.80;1.00;;;;;;5006671;28;20233;-51
2021/09/20 00:35:53;;;;;;;7.30;4.77;;;14.70;1.00;;;;;;5004519;28;20750;-50
2021/09/20 00:38:20;;;;;;;5.40;4.50;;;14.60;1.00;;;;;;4999146;28;20289;-51
2021/09/20 00:40:47;;;;;;;6.13;4.50;;;14.70;1.00;;;;;;4996442;28;20279;-50
2021/09/20 00:43:14;;;;;;;5.73;4.73;;;14.70;1.00;;;;;;5007510;28;20226;-50
2021/09/20 00:45:41;;;;;;;7.07;5.10;;;14.70;1.00;;;;;;5004089;28;20205;-51
2021/09/20 00:48:08;;;;;;;8.20;5.23;;;14.70;1.00;;;;;;5007773;28;20233;-51
2021/09/20 00:50:35;;;;;;;6.40;4.87;;;14.70;1.00;;;;;;5005507;28;20283;-51
2021/09/20 00:53:02;;;;;;;6.50;4.53;;;14.60;1.00;;;;;;5008736;28;20263;-50
2021/09/20 00:55:29;;;;;;;5.97;4.83;;;14.50;1.00;;;;;;5005912;28;20236;-51
2021/09/20 00:57:57;;;;;;;6.77;4.67;;;14.50;85.00;;;;;;5007048;28;20247;-51
2021/09/20 01:00:25;;;;;;;6.10;5.17;;;14.60;99.90;;;;;;5004417;28;20325;-51
2021/09/20 01:02:52;;;;;;;6.03;4.90;;;14.70;37.10;;;;;;5007456;28;20209;-51
2021/09/20 01:05:20;;;;;;;7.37;5.17;;;14.70;1.00;;;;;;5006389;28;20288;-50
2021/09/20 01:07:47;;;;;;;7.90;4.97;;;14.60;93.90;;;;;;5008275;28;20676;-50
2021/09/20 01:10:14;;;;;;;6.90;5.40;;;14.50;99.90;;;;;;5005687;28;20208;-50
2021/09/20 01:12:41;;;;;;;6.67;4.97;;;14.50;99.30;;;;;;5007871;28;20710;-50
2021/09/20 01:15:08;;;;;;;6.97;5.07;;;14.60;1.00;;;;;;5008912;28;20289;-51
2021/09/20 01:17:35;;;;;;;7.67;5.47;;;14.50;1.00;;;;;;5004830;28;20495;-50
2021/09/20 01:20:04;;;;;;;5.90;4.83;;;14.50;1.00;;;;;;5006418;28;20296;-50
2021/09/20 01:22:31;;;;;;;5.93;4.73;;;14.50;99.90;;;;;;5008948;28;20233;-50
2021/09/20 01:24:58;;;;;;;6.30;5.17;;;14.50;1.00;;;;;;5008961;28;20696;-50
2021/09/20 01:27:25;;;;;;;8.80;5.17;;;14.30;77.10;;;;;;5010341;28;20204;-50
2021/09/20 01:29:52;;;;;;;8.60;5.10;;;14.40;1.00;;;;;;5012202;28;20283;-51
2021/09/20 01:32:19;;;;;;;6.33;5.13;;;14.50;1.00;;;;;;5008271;28;20228;-50
2021/09/20 01:34:46;;;;;;;6.30;5.13;;;14.40;1.00;;;;;;5015570;28;20238;-50
2021/09/20 01:37:12;;;;;;;7.13;4.80;;;14.30;1.00;;;;;;5009660;28;20695;-51
2021/09/20 01:39:39;;;;;;;8.17;4.87;;;14.30;99.90;;;;;;5012845;28;20202;-50
2021/09/20 01:42:07;;;;;;;6.50;5.10;;;14.40;1.00;;;;;;5010584;28;20295;-53
2021/09/20 01:44:35;;;;;;;5.87;5.03;;;14.30;39.70;;;;;;5003901;28;20233;-50
2021/09/20 01:47:02;;;;;;;6.27;5.27;;;14.30;99.90;;;;;;5002893;28;20553;-50
2021/09/20 01:49:30;;;;;;;6.83;4.87;;;14.30;99.90;;;;;;5002353;28;20234;-50
2021/09/20 01:51:58;;;;;;;6.60;4.43;;;14.30;36.90;;;;;;5000487;28;20693;-50
2021/09/20 01:54:25;;;;;;;6.07;5.00;;;14.30;1.00;;;;;;5004287;28;20244;-50
2021/09/20 01:56:52;;;;;;;8.53;4.90;;;14.40;1.00;;;;;;5001293;28;20769;-53
2021/09/20 01:59:19;;;;;;;6.47;5.10;;;14.30;1.00;;;;;;5013556;28;20228;-50
2021/09/20 02:01:46;;;;;;;5.20;4.23;;;14.30;1.00;;;;;;5013447;28;20250;-52
2021/09/20 02:04:13;;;;;;;9.10;5.37;;;14.20;19.60;;;;;;5009727;28;20226;-51
2021/09/20 02:06:40;;;;;;;7.33;5.37;;;14.20;99.90;;;;;;5011051;28;20654;-50
2021/09/20 02:09:10;;;;;;;6.23;5.10;;;14.20;1.00;;;;;;5010137;28;20249;-53
2021/09/20 02:11:38;;;;;;;6.27;4.80;;;14.10;1.00;;;;;;5005287;28;20518;-50
2021/09/20 02:14:05;;;;;;;8.47;5.10;;;14.00;1.00;;;;;;5010443;28;20297;-50
2021/09/20 02:16:32;;;;;;;6.40;4.73;;;14.10;99.90;;;;;;5012288;28;20275;-50
2021/09/20 02:18:59;;;;;;;5.80;4.80;;;14.10;1.00;;;;;;5012875;28;20247;-50
2021/09/20 02:21:26;;;;;;;7.10;4.97;;;14.10;1.00;;;;;;5011600;28;20690;-51
2021/09/20 02:23:53;;;;;;;7.03;4.97;;;14.10;1.00;;;;;;5013799;28;20291;-50
2021/09/20 02:26:20;;;;;;;5.07;4.03;;;14.00;1.00;;;;;;5008343;28;20657;-50
2021/09/20 02:28:47;;;;;;;6.77;4.73;;;13.90;1.00;;;;;;5009525;28;20683;-51
2021/09/20 02:31:14;;;;;;;6.23;4.87;;;13.90;1.00;;;;;;5007250;28;20241;-50
2021/09/20 02:33:41;;;;;;;8.77;5.23;;;13.80;1.00;;;;;;5009736;28;20248;-51
2021/09/20 02:36:08;;;;;;;5.87;4.57;;;13.90;1.00;;;;;;5008418;28;20687;-50
2021/09/20 02:38:35;;;;;;;8.43;4.57;;;13.80;1.00;;;;;;5010174;28;20513;-50
2021/09/20 02:41:04;;;;;;;7.53;4.77;;;13.80;1.00;;;;;;5003406;28;20289;-51
2021/09/20 02:43:31;;;;;;;5.83;4.90;;;13.70;1.00;;;;;;5009696;28;20661;-50
2021/09/20 02:45:58;;;;;;;7.23;4.67;;;13.80;1.00;;;;;;5009356;28;20227;-51
2021/09/20 02:48:25;;;;;;;5.90;4.67;;;13.80;1.00;;;;;;5011196;28;20267;-50
2021/09/20 02:50:52;;;;;;;5.47;4.40;;;13.80;1.00;;;;;;5009594;28;20204;-51
2021/09/20 02:53:19;;;;;;;6.63;4.70;;;13.50;99.90;;;;;;5007991;28;20225;-50
2021/09/20 02:55:46;;;;;;;7.00;4.70;;;13.70;99.90;;;;;;5008896;28;20304;-50
2021/09/20 02:58:13;;;;;;;6.07;5.00;;;13.80;1.00;;;;;;5013519;28;20217;-50
2021/09/20 03:00:41;;;;;;;8.57;5.20;;;13.60;1.00;;;;;;5007534;28;20220;-51
2021/09/20 03:03:08;;;;;;;8.93;5.07;;;13.50;1.00;;;;;;5004550;28;20208;-50
2021/09/20 03:05:36;;;;;;;6.13;4.60;;;13.40;1.00;;;;;;5008449;28;20708;-50
2021/09/20 03:08:04;;;;;;;7.93;4.67;;;13.40;1.00;;;;;;5005217;28;20206;-50
2021/09/20 03:10:32;;;;;;;7.13;5.13;;;13.50;1.00;;;;;;5009783;28;20225;-50
2021/09/20 03:12:59;;;;;;;8.80;5.47;;;13.60;1.00;;;;;;5010488;28;20287;-51
2021/09/20 03:15:26;;;;;;;5.87;4.93;;;13.60;1.00;;;;;;5010433;28;20295;-50
2021/09/20 03:17:53;;;;;;;5.63;4.80;;;13.60;1.00;;;;;;5003200;28;20336;-50
2021/09/20 03:20:20;;;;;;;6.37;5.00;;;13.60;1.00;;;;;;5004162;28;20229;-51
2021/09/20 03:22:47;;;;;;;5.30;4.80;;;13.50;10.20;;;;;;5007512;28;20193;-50
2021/09/20 03:25:14;;;;;;;5.23;4.70;;;13.50;99.90;;;;;;5008524;28;20223;-50
2021/09/20 03:27:42;;;;;;;6.17;5.03;;;13.40;1.00;;;;;;5008869;28;20710;-51
2021/09/20 03:30:10;;;;;;;6.77;5.17;;;13.40;1.00;;;;;;5007757;28;20247;-51
2021/09/20 03:32:37;;;;;;;7.37;5.03;;;13.30;1.00;;;;;;5009131;28;20489;-51
2021/09/20 03:35:06;;;;;;;5.80;4.87;;;13.30;1.00;;;;;;5009698;28;20625;-51
2021/09/20 03:37:32;;;;;;;7.37;4.77;;;13.20;1.00;;;;;;5004849;28;20244;-50
2021/09/20 03:40:00;;;;;;;5.60;4.97;;;13.20;99.90;;;;;;4995668;28;20291;-51
2021/09/20 03:42:27;;;;;;;8.13;5.23;;;13.20;99.90;;;;;;5002336;28;20232;-51
2021/09/20 03:44:54;;;;;;;8.43;5.40;;;13.10;1.00;;;;;;5014810;28;20615;-51
2021/09/20 03:47:21;;;;;;;7.60;4.90;;;13.10;1.00;;;;;;5005234;28;20314;-51
2021/09/20 03:49:48;;;;;;;6.83;5.13;;;12.90;1.00;;;;;;5008449;28;20249;-51
2021/09/20 03:52:14;;;;;;;6.87;4.87;;;12.90;1.00;;;;;;5008380;28;20228;-50
2021/09/20 03:54:41;;;;;;;8.63;5.60;;;12.90;1.00;;;;;;5007395;28;20196;-51
2021/09/20 03:57:08;;;;;;;6.67;5.23;;;12.90;1.00;;;;;;5006825;28;20228;-51
2021/09/20 03:59:35;;;;;;;7.33;5.27;;;12.90;1.00;;;;;;5010849;28;20645;-51
2021/09/20 04:02:02;;;;;;;6.70;4.60;;;12.80;1.00;;;;;;5007903;28;20632;-51
2021/09/20 04:04:29;;;;;;;7.30;4.70;;;12.90;1.00;;;;;;5009125;28;20611;-51
2021/09/20 04:06:56;;;;;;;6.23;5.10;;;12.90;1.00;;;;;;5008130;28;20310;-50
2021/09/20 04:09:24;;;;;;;7.50;5.70;;;12.90;1.00;;;;;;5006161;28;20232;-51
2021/09/20 04:11:51;;;;;;;7.10;5.10;;;12.90;1.00;;;;;;5008513;28;20307;-50
2021/09/20 04:14:18;;;;;;;6.93;5.00;;;12.80;1.00;;;;;;5008503;28;20199;-50
2021/09/20 04:16:44;;;;;;;8.83;5.40;;;12.80;1.00;;;;;;5010650;28;20225;-51
2021/09/20 04:19:11;;;;;;;6.23;4.90;;;12.80;99.90;;;;;;5011581;28;20334;-51
2021/09/20 04:21:38;;;;;;;8.50;5.53;;;12.50;1.00;;;;;;5006486;28;20198;-51
2021/09/20 04:24:05;;;;;;;10.80;5.13;;;12.80;1.00;;;;;;5006330;28;20301;-51
2021/09/20 04:26:32;;;;;;;6.83;5.03;;;12.80;1.00;;;;;;5008746;28;20323;-50
2021/09/20 04:28:59;;;;;;;5.27;4.53;;;12.60;1.00;;;;;;5013476;28;20295;-51
2021/09/20 04:31:25;;;;;;;6.63;5.17;;;12.70;99.90;;;;;;5006487;28;20325;-51
2021/09/20 04:33:52;;;;;;;7.50;5.07;;;12.60;99.90;;;;;;5009782;28;20660;-51
2021/09/20 04:36:19;;;;;;;5.70;4.90;;;12.60;99.90;;;;;;5011304;28;20574;-50
2021/09/20 04:38:46;;;;;;;13.67;5.20;;;12.70;1.00;;;;;;5009836;28;20212;-51
2021/09/20 04:41:13;;;;;;;6.30;4.97;;;12.60;27.20;;;;;;5002715;28;20308;-50
2021/09/20 04:43:39;;;;;;;8.33;5.33;;;12.60;99.90;;;;;;5011870;28;20733;-51
2021/09/20 04:46:06;;;;;;;7.03;4.93;;;12.60;99.90;;;;;;5003057;28;20580;-50
2021/09/20 04:48:33;;;;;;;10.23;5.43;;;12.70;1.00;;;;;;5007838;28;20208;-50
2021/09/20 04:51:00;;;;;;;5.97;4.87;;;12.60;1.00;;;;;;5006339;28;20327;-50
2021/09/20 04:53:27;;;;;;;7.17;4.83;;;12.60;1.00;;;;;;5005833;28;20243;-50
2021/09/20 04:55:53;;;;;;;11.40;5.70;;;12.60;1.00;;;;;;5005373;28;20212;-50
2021/09/20 04:58:20;;;;;;;5.50;5.00;;;12.60;1.00;;;;;;5007820;28;20415;-50
2021/09/20 05:00:47;;;;;;;6.27;4.97;;;12.60;1.00;;;;;;5009683;28;20231;-50
2021/09/20 05:03:14;;;;;;;6.40;4.80;;;12.50;99.90;;;;;;5004444;28;20209;-50
2021/09/20 05:05:41;;;;;;;7.13;5.57;;;12.50;99.90;;;;;;5011843;28;20198;-51
2021/09/20 05:08:08;;;;;;;6.60;5.00;;;12.60;99.90;;;;;;5012843;28;20327;-51
2021/09/20 05:10:35;;;;;;;7.93;5.13;;;12.60;99.90;;;;;;5008240;28;20238;-51
2021/09/20 05:13:02;;;;;;;7.37;4.60;;;12.60;99.90;;;;;;5009468;28;20306;-51
2021/09/20 05:15:29;;;;;;;8.03;5.17;;;12.60;99.90;;;;;;5007232;28;20705;-51
2021/09/20 05:17:57;;;;;;;9.50;5.40;;;12.50;1.00;;;;;;5001567;28;20674;-51
2021/09/20 05:20:23;;;;;;;8.10;5.83;;;12.50;1.00;;;;;;5014446;28;20271;-51
2021/09/20 05:22:51;;;;;;;8.37;5.67;;;12.50;1.00;;;;;;5013067;28;20291;-50
2021/09/20 05:25:18;;;;;;;9.77;5.90;;;12.40;1.00;;;;;;5007181;28;20259;-51
2021/09/20 05:27:45;;;;;;;9.10;6.20;;;12.40;1.00;;;;;;5011562;28;20669;-51
2021/09/20 05:30:13;;;;;;;9.27;6.23;;;12.30;99.90;;;;;;5012821;28;20707;-50
2021/09/20 05:32:40;;;;;;;7.53;5.97;;;12.40;99.90;;;;;;5010807;28;20341;-51
2021/09/20 05:35:09;;;;;;;12.20;6.70;;;12.40;99.90;;;;;;5010307;28;20232;-51
2021/09/20 05:37:36;;;;;;;8.83;6.40;;;12.40;99.90;;;;;;5011854;28;20216;-51
2021/09/20 05:40:04;;;;;;;11.10;6.53;;;12.40;1.00;;;;;;5012743;28;20673;-51
2021/09/20 05:42:31;;;;;;;9.13;6.53;;;12.40;1.00;;;;;;5003048;28;20642;-51
2021/09/20 05:44:58;;;;;;;8.70;6.50;;;12.30;1.00;;;;;;5007528;28;20296;-51
2021/09/20 05:47:25;;;;;;;10.90;7.23;;;12.30;1.00;;;;;;5003659;28;20295;-51
2021/09/20 05:49:52;;;;;;;9.60;6.17;;;12.20;1.00;;;;;;5005918;28;20897;-52
2021/09/20 05:52:18;;;;;;;9.83;6.23;;;12.30;99.90;;;;;;5004296;28;20252;-51
2021/09/20 05:54:45;;;;;;;8.30;6.57;;;12.30;99.90;;;;;;5001182;28;20292;-52
2021/09/20 05:57:12;;;;;;;10.27;6.10;;;12.30;99.90;;;;;;5001488;28;20198;-50
2021/09/20 05:59:40;;;;;;;13.80;7.00;;;12.30;1.00;;;;;;5011674;28;20292;-51
2021/09/20 06:02:07;;;;;;;9.33;6.77;;;12.20;1.00;;;;;;4997460;28;20271;-51
2021/09/20 06:04:34;;;;;;;13.37;7.97;;;12.30;1.00;;;;;;5015609;28;20295;-51
2021/09/20 06:07:00;;;;;;;10.80;7.30;;;12.40;1.00;;;;;;5009459;28;20208;-51
2021/09/20 06:09:27;;;;;;;9.83;6.87;;;12.30;99.90;;;;;;5010723;28;20198;-52
2021/09/20 06:11:54;;;;;;;10.10;6.97;;;12.40;1.00;;;;;;5010199;28;20629;-51
2021/09/20 06:14:21;;;;;;;14.00;6.57;;;12.20;1.00;;;;;;5003614;28;20229;-51
2021/09/20 06:16:48;;;;;;;16.57;7.37;;;12.30;99.90;;;;;;5012491;28;20543;-51
2021/09/20 06:19:14;;;;;;;11.67;7.13;;;12.30;1.00;;;;;;5012364;28;20361;-51
2021/09/20 06:21:41;;;;;;;9.37;6.90;;;12.30;1.00;;;;;;5012213;28;20235;-51
2021/09/20 06:24:08;;;;;;;12.10;7.33;;;12.30;1.00;;;;;;5003228;28;20323;-51
2021/09/20 06:26:35;;;;;;;11.47;7.33;;;12.20;99.90;;;;;;5001083;28;20307;-51
2021/09/20 06:29:02;;;;;;;10.97;6.43;;;12.20;1.00;;;;;;5001056;28;20377;-51
2021/09/20 06:31:28;;;;;;;13.50;7.17;;;12.30;1.00;;;;;;5001580;28;20319;-51
2021/09/20 06:33:55;;;;;;;10.20;6.90;;;12.40;1.00;;;;;;5004818;28;20609;-51
2021/09/20 06:36:22;;;;;;;10.40;7.50;;;12.50;99.90;;;;;;5003676;28;20697;-51
2021/09/20 06:38:49;;;;;;;11.20;7.30;;;12.60;1.00;;;;;;5004872;28;20253;-51
2021/09/20 06:41:16;;;;;;;8.90;6.93;;;12.50;99.90;;;;;;4999517;28;20337;-51
2021/09/20 06:43:43;;;;;;;10.07;6.90;;;12.40;99.90;;;;;;4999491;28;20234;-51
2021/09/20 06:46:10;;;;;;;11.00;6.67;;;12.40;1.00;;;;;;5001530;28;20624;-51
2021/09/20 06:48:39;;;;;;;8.53;6.40;;;12.60;99.90;;;;;;4996022;28;20336;-51
2021/09/20 06:51:07;;;;;;;8.83;6.47;;;12.60;99.90;;;;;;5009907;28;20249;-52
2021/09/20 06:53:33;;;;;;;8.27;6.63;;;12.70;99.90;;;;;;5003079;28;20315;-51
2021/09/20 06:56:00;;;;;;;8.63;6.73;;;12.80;1.00;;;;;;5006699;28;20205;-51
2021/09/20 06:58:27;;;;;;;11.10;7.20;;;12.80;99.90;;;;;;4997423;28;20220;-51
2021/09/20 07:00:54;;;;;;;7.93;6.70;;;12.70;1.00;;;;;;5003896;28;20203;-51
2021/09/20 07:03:21;;;;;;;9.30;7.20;;;12.80;1.00;;;;;;4997343;28;20228;-51
2021/09/20 07:05:48;;;;;;;8.33;6.27;;;12.80;1.00;;;;;;4998934;28;20199;-51
2021/09/20 07:08:15;;;;;;;11.00;6.97;;;12.80;99.90;;;;;;5005566;28;20243;-52
2021/09/20 07:10:42;;;;;;;10.00;6.77;;;12.90;1.00;;;;;;5000565;28;20233;-51
2021/09/20 07:13:09;;;;;;;8.70;7.07;;;12.80;99.90;;;;;;5013733;28;20209;-51
2021/09/20 07:15:37;;;;;;;10.17;6.73;;;12.90;99.90;;;;;;4995180;28;20256;-51
2021/09/20 07:18:05;;;;;;;10.50;6.80;;;13.00;1.00;;;;;;4999951;28;20331;-51
2021/09/20 07:20:35;;;;;;;8.90;6.77;;;12.80;1.00;;;;;;5000604;28;20708;-52
2021/09/20 07:23:02;;;;;;;9.70;7.13;;;12.90;99.90;;;;;;4993402;28;20570;-51
2021/09/20 07:25:29;;;;;;;10.67;7.13;;;12.90;99.90;;;;;;4996783;28;20566;-51
2021/09/20 07:27:56;;;;;;;10.20;7.60;;;12.90;99.90;;;;;;4999911;28;20235;-52
2021/09/20 07:30:23;;;;;;;7.50;6.43;;;13.10;53.00;;;;;;4998686;28;20537;-51
2021/09/20 07:32:51;;;;;;;13.27;7.63;;;13.10;99.90;;;;;;5001934;28;20248;-51
2021/09/20 07:35:19;;;;;;;10.70;7.10;;;13.10;99.90;;;;;;5002236;28;20387;-51
2021/09/20 07:37:48;;;;;;;11.07;7.10;;;13.30;1.00;;;;;;4999269;28;20648;-51
2021/09/20 07:40:16;;;;;;;9.37;7.40;;;13.40;99.90;;;;;;5001081;28;20208;-51
2021/09/20 07:42:44;;;;;;;10.07;6.37;;;13.40;99.90;;;;;;5006640;28;20332;-51
2021/09/20 07:45:12;;;;;;;11.20;7.23;;;13.50;99.90;;;;;;4999513;28;20241;-51
2021/09/20 07:47:39;;;;;;;9.27;7.03;;;13.50;99.90;;;;;;4998721;28;20286;-51
2021/09/20 07:50:08;;;;;;;9.87;6.67;;;13.50;33.20;;;;;;5004625;28;20665;-51
2021/09/20 07:52:34;;;;;;;12.70;6.60;;;13.50;1.00;;;;;;4998302;28;20201;-51
2021/09/20 07:55:05;;;;;;;8.60;6.37;;;13.60;1.00;;;;;;4998167;28;20288;-52
2021/09/20 07:57:32;;;;;;;8.60;6.50;;;13.70;99.90;;;;;;4995134;28;20231;-52
2021/09/20 08:00:00;;;;;;;10.47;6.43;;;13.80;99.90;;;;;;5002182;28;20199;-52
2021/09/20 08:02:27;;;;;;;7.00;5.97;;;13.90;99.90;;;;;;4997126;28;20637;-52
2021/09/20 08:04:54;;;;;;;7.57;6.70;;;14.20;1.00;;;;;;4996633;28;20662;-52
2021/09/20 08:07:20;;;;;;;10.10;7.10;;;14.40;99.90;;;;;;4998521;28;20237;-52
2021/09/20 08:09:47;;;;;;;10.27;6.37;;;14.50;99.90;;;;;;5011803;28;20301;-52
2021/09/20 08:12:14;;;;;;;7.17;5.80;;;14.60;99.90;;;;;;5003737;28;20292;-51
2021/09/20 08:14:41;;;;;;;7.53;6.03;;;14.90;1.00;;;;;;5006839;28;20237;-52
2021/09/20 08:17:11;;;;;;;7.33;5.90;;;15.00;1.00;;;;;;5002591;28;20266;-52
2021/09/20 08:19:38;;;;;;;7.67;6.23;;;15.20;99.90;;;;;;5000065;28;20745;-52
2021/09/20 08:22:05;;;;;;;10.07;6.70;;;15.30;99.90;;;;;;4995240;28;20205;-52
2021/09/20 08:24:33;;;;;;;6.70;6.00;;;15.20;99.90;;;;;;4995152;28;20699;-52
2021/09/20 08:27:00;;;;;;;8.00;6.37;;;15.20;1.00;;;;;;5000780;28;20610;-52
2021/09/20 08:29:27;;;;;;;9.80;6.20;;;15.50;1.00;;;;;;5006326;28;20262;-52
2021/09/20 08:31:54;;;;;;;9.60;6.20;;;15.60;11.40;;;;;;5000767;28;20420;-52
2021/09/20 08:34:20;;;;;;;7.40;6.03;;;15.40;1.00;;;;;;5002393;28;20585;-49
2021/09/20 08:36:47;;;;;;;7.83;5.73;;;15.60;1.00;;;;;;5003470;28;20255;-51
2021/09/20 08:39:14;;;;;;;7.33;5.70;;;15.60;1.00;;;;;;4997889;28;20251;-51
2021/09/20 08:41:43;;;;;;;7.87;6.00;;;15.80;1.00;;;;;;5004082;28;20595;-51
2021/09/20 08:44:10;;;;;;;9.30;6.40;;;16.20;1.00;;;;;;5003017;28;20226;-51
2021/09/20 08:46:39;;;;;;;10.70;6.27;;;16.60;1.00;;;;;;4999275;28;20199;-50
2021/09/20 08:49:06;;;;;;;9.70;6.90;;;16.60;1.00;;;;;;4997147;28;20729;-51
2021/09/20 08:51:34;;;;;;;8.83;6.40;;;16.40;99.90;;;;;;4991945;28;20302;-51
2021/09/20 08:54:01;;;;;;;8.00;6.53;;;16.50;99.90;;;;;;5003668;28;20545;-51
2021/09/20 08:56:28;;;;;;;7.80;6.97;;;16.80;1.00;;;;;;5002259;28;20207;-51
2021/09/20 08:58:55;;;;;;;13.13;6.00;;;16.70;1.00;;;;;;4997191;28;20671;-51
2021/09/20 09:01:23;;;;;;;8.70;6.10;;;17.30;1.00;;;;;;5007328;28;20253;-51
2021/09/20 09:03:50;;;;;;;7.20;6.50;;;17.20;1.00;;;;;;4998832;28;20691;-51
2021/09/20 09:06:30;;;;;;;7.60;6.70;;;16.90;40.70;;;;;;5003148;28;20205;-53
2021/09/20 09:08:57;;;;;;;7.27;5.90;;;17.10;38.00;;;;;;4996193;28;20293;-51
2021/09/20 09:11:27;;;;;;;8.63;6.43;;;17.30;99.90;;;;;;5004217;28;20296;-51
2021/09/20 09:13:58;;;;;;;9.47;5.90;;;17.60;1.00;;;;;;4999417;28;20204;-51
2021/09/20 09:16:27;;;;;;;8.00;6.33;;;18.00;1.00;;;;;;5001245;28;20959;-51
2021/09/20 09:19:04;;;;;;;7.03;5.87;;;17.90;1.00;;;;;;4997401;28;20267;-51
2021/09/20 09:21:37;;;;;;;7.73;6.17;;;17.90;1.00;;;;;;4992450;28;20311;-50
2021/09/20 09:24:05;;;;;;;9.50;6.70;;;18.20;1.00;;;;;;4996439;28;20491;-53
2021/09/20 09:26:32;;;;;;;9.20;6.30;;;18.00;1.00;;;;;;5003227;28;20204;-50
2021/09/20 09:29:12;;;;;;;7.80;6.80;;;18.10;1.00;;;;;;5005390;28;20245;-51
2021/09/20 09:31:41;;;;;;;7.13;5.87;;;18.30;1.00;;;;;;4994457;28;20251;-51
2021/09/20 09:34:15;;;;;;;7.43;6.63;;;17.80;1.00;;;;;;5000353;28;20343;-51
2021/09/20 09:36:43;;;;;;;7.67;6.30;;;17.70;1.00;;;;;;5000755;28;20206;-51
2021/09/20 09:39:10;;;;;;;9.60;6.30;;;17.70;1.00;;;;;;5004318;28;20693;-51
2021/09/20 09:41:40;;;;;;;7.33;5.87;;;17.40;1.00;;;;;;5002040;28;20617;-50
2021/09/20 09:44:11;;;;;;;7.50;6.40;;;17.30;1.00;;;;;;5002076;28;20201;-51
2021/09/20 09:46:40;;;;;;;9.50;7.20;;;17.40;1.00;;;;;;5012666;28;20289;-50
2021/09/20 09:49:16;;;;;;;9.07;6.33;;;17.10;1.00;;;;;;4995969;28;20232;-51
2021/09/20 09:51:58;;;;;;;7.17;5.90;;;17.30;1.00;;;;;;4996025;28;20232;-51
2021/09/20 09:54:33;;;;;;;7.50;6.17;;;17.40;1.00;;;;;;5010342;28;20229;-52
2021/09/20 09:57:14;;;;;;;11.10;6.37;;;17.40;1.00;;;;;;5001219;28;20293;-51
2021/09/20 09:59:42;;;;;;;7.60;6.13;;;17.40;1.00;;;;;;5001422;28;20297;-51
2021/09/20 10:02:22;;;;;;;9.10;5.80;;;17.00;1.00;;;;;;5002634;28;20250;-51
2021/09/20 10:04:57;;;;;;;6.43;5.70;;;17.10;1.00;;;;;;5009743;28;20679;-50
2021/09/20 10:07:39;;;;;;;8.80;6.50;;;17.10;1.00;;;;;;4996646;28;20243;-51
2021/09/20 10:10:13;;;;;;;9.30;6.77;;;17.20;1.00;;;;;;5000248;28;20371;-50
2021/09/20 10:12:42;;;;;;;8.53;6.50;;;17.40;1.00;;;;;;5009203;28;20208;-51
2021/09/20 10:15:12;;;;;;;7.37;5.67;;;17.30;1.00;;;;;;5007425;28;20197;-50
2021/09/20 10:17:39;;;;;;;8.07;6.60;;;17.50;1.00;;;;;;5007875;28;20244;-52
2021/09/20 10:20:09;;;;;;;9.17;6.47;;;17.30;1.00;;;;;;5009079;28;20225;-52
2021/09/20 10:22:36;;;;;;;7.50;6.47;;;17.50;1.00;;;;;;5003429;28;20609;-50
2021/09/20 10:25:07;;;;;;;10.10;5.63;;;17.30;1.00;;;;;;5006835;28;20223;-52
2021/09/20 10:27:35;;;;;;;7.53;6.00;;;17.40;1.00;;;;;;5006406;28;20282;-52
2021/09/20 10:30:13;;;;;;;7.33;6.60;;;17.40;1.00;;;;;;5001565;28;20210;-50
2021/09/20 10:32:43;;;;;;;7.50;6.33;;;17.50;1.00;;;;;;5006240;28;20343;-50
2021/09/20 10:35:27;;;;;;;8.67;6.90;;;17.50;1.00;;;;;;5005361;28;20651;-51
2021/09/20 10:38:14;;;;;;;7.40;6.00;;;17.20;1.00;;;;;;4998005;28;20244;-51
2021/09/20 10:40:40;;;;;;;8.77;6.03;;;17.40;1.00;;;;;;4998545;28;20283;-51
2021/09/20 10:43:07;;;;;;;7.00;5.90;;;17.40;1.00;;;;;;5005695;28;20242;-51
2021/09/20 10:45:39;;;;;;;8.73;5.93;;;17.60;1.00;;;;;;5008400;28;20213;-51
2021/09/20 10:48:20;;;;;;;8.00;6.00;;;17.60;1.00;;;;;;5000530;28;20339;-51
2021/09/20 10:50:49;;;;;;;6.27;5.17;;;17.40;1.00;;;;;;4996766;28;20682;-51
2021/09/20 10:53:46;;;;;;;6.93;5.10;;;17.50;1.00;;;;;;5016766;28;20281;-51
2021/09/20 10:56:17;;;;;;;6.57;5.10;;;17.40;1.00;;;;;;4993722;28;20271;-51
2021/09/20 10:58:50;;;;;;;6.80;5.40;;;17.70;1.00;;;;;;4997966;28;20245;-51
2021/09/20 11:01:19;;;;;;;7.20;5.80;;;17.90;1.00;;;;;;5001911;28;20252;-51
2021/09/20 11:03:50;;;;;;;7.83;6.27;;;18.00;1.00;;;;;;4998568;28;20200;-51
2021/09/20 11:06:24;;;;;;;6.10;5.50;;;17.60;1.00;;;;;;5000181;28;20291;-51
2021/09/20 11:09:03;;;;;;;7.27;5.77;;;17.90;1.00;;;;;;4998948;28;20206;-51
2021/09/20 11:11:44;;;;;;;9.17;6.00;;;17.90;1.00;;;;;;5001892;28;20231;-51
2021/09/20 11:14:22;;;;;;;8.23;5.93;;;18.10;1.00;;;;;;4994848;28;20205;-51
2021/09/20 11:16:54;;;;;;;7.60;6.13;;;18.10;1.00;;;;;;5005720;28;20282;-51
2021/09/20 11:19:31;;;;;;;6.63;5.70;;;18.20;1.00;;;;;;5002487;28;20237;-51
2021/09/20 11:22:22;;;;;;;5.93;5.20;;;17.90;1.00;;;;;;5003874;28;20225;-51
2021/09/20 11:25:03;;;;;;;6.00;4.90;;;17.70;1.00;;;;;;4999840;28;20197;-51
2021/09/20 11:27:42;;;;;;;8.57;5.30;;;17.70;1.00;;;;;;4999838;28;20288;-51
2021/09/20 11:30:24;;;;;;;6.53;5.30;;;17.70;1.00;;;;;;4992928;28;20205;-51
2021/09/20 11:33:02;;;;;;;6.37;4.90;;;18.00;1.00;;;;;;4997025;28;20685;-51
2021/09/20 11:35:31;;;;;;;5.50;5.00;;;18.50;99.90;;;;;;4997100;28;20201;-51
2021/09/20 11:38:02;;;;;;;6.50;5.57;;;18.50;99.90;;;;;;5001824;28;20371;-51
2021/09/20 11:40:31;;;;;;;6.93;5.00;;;18.60;99.90;;;;;;5002756;28;20213;-51
2021/09/20 11:43:04;;;;;;;6.20;4.57;;;18.60;99.90;;;;;;4995234;28;20206;-51
2021/09/20 11:45:34;;;;;;;6.00;4.90;;;18.50;99.90;;;;;;4998740;28;20206;-51
2021/09/20 11:48:04;;;;;;;6.70;5.20;;;18.40;99.90;;;;;;4992247;28;20202;-51
2021/09/20 11:50:37;;;;;;;5.43;4.87;;;18.70;99.90;;;;;;5006500;28;20199;-51
2021/09/20 11:53:06;;;;;;;6.37;5.77;;;19.10;99.90;;;;;;4999653;28;20204;-51
2021/09/20 11:55:45;;;;;;;10.70;5.63;;;18.80;99.90;;;;;;4999669;28;20232;-51
2021/09/20 11:58:15;;;;;;;6.63;4.90;;;19.30;99.90;;;;;;5000290;28;20320;-51
2021/09/20 12:00:47;;;;;;;7.93;5.43;;;19.90;99.80;;;;;;4993380;28;20658;-51
2021/09/20 12:03:16;;;;;;;5.83;5.20;;;20.20;33.30;;;;;;5000847;28;20203;-51
2021/09/20 12:05:48;;;;;;;5.97;5.33;;;20.10;1.00;;;;;;5004281;28;20217;-51
2021/09/20 12:08:18;;;;;;;5.17;4.50;;;19.90;1.00;;;;;;5009254;28;20692;-51
2021/09/20 12:10:48;;;;;;;5.67;4.50;;;20.60;1.00;;;;;;4991219;28;20560;-51
2021/09/20 12:13:15;;;;;;;7.73;5.43;;;20.60;1.00;;;;;;5000613;28;20300;-52
2021/09/20 12:15:48;;;;;;;6.70;4.57;;;20.40;1.00;;;;;;4992148;28;20215;-52
2021/09/20 12:18:27;;;;;;;5.63;4.80;;;20.10;1.00;;;;;;4996763;28;20289;-51
2021/09/20 12:21:00;;;;;;;4.63;4.10;;;19.90;1.00;;;;;;4999706;28;20256;-51
2021/09/20 12:23:33;;;;;;;5.13;4.03;;;20.50;1.00;;;;;;4996051;28;20224;-52
2021/09/20 12:26:05;;;;;;;5.17;4.67;;;20.30;1.00;;;;;;4991184;28;20309;-52
2021/09/20 12:28:44;;;;;;;10.20;5.07;;;19.80;1.00;;;;;;5008933;28;20643;-51
2021/09/20 12:31:15;;;;;;;4.97;4.37;;;20.00;1.00;;;;;;4996249;28;20233;-51
2021/09/20 12:33:54;;;;;;;5.00;4.50;;;20.60;1.00;;;;;;4994660;28;20202;-51
2021/09/20 12:36:27;;;;;;;5.10;3.83;;;21.30;1.00;;;;;;5013770;28;20577;-52
2021/09/20 12:39:27;;;;;;;7.13;4.80;;;21.30;1.00;;;;;;4997539;28;20289;-52
2021/09/20 12:42:10;;;;;;;4.80;4.30;;;21.20;1.00;;;;;;5003125;28;20781;-52
2021/09/20 12:44:39;;;;;;;5.20;4.27;;;21.60;1.00;;;;;;5019976;28;20650;-51
2021/09/20 12:47:16;;;;;;;5.07;4.47;;;21.90;1.00;;;;;;5000088;28;20290;-51
2021/09/20 12:49:58;;;;;;;4.80;4.33;;;22.10;1.00;;;;;;5006979;28;20267;-52
2021/09/20 12:52:30;;;;;;;7.53;4.73;;;21.80;1.00;;;;;;4990534;28;20244;-51
2021/09/20 12:55:16;;;;;;;4.73;3.80;;;21.80;1.00;;;;;;4995021;28;20209;-51
2021/09/20 12:57:54;;;;;;;7.00;4.13;;;21.90;1.00;;;;;;5003036;28;20212;-51
2021/09/20 13:00:36;;;;;;;6.10;4.30;;;21.50;1.00;;;;;;4998357;28;20225;-52
2021/09/20 13:03:14;;;;;;;7.10;4.17;;;22.00;1.00;;;;;;5002183;28;20315;-51